sensor_id;sensor_type;location;lat;lon;timestamp;P1;durP1;ratioP1;P2;durP2;ratioP2
8113;SDS011;4099;52.684;9.918;2023-05-02T00:00:01;5.73;;;4.43;;
8113;SDS011;4099;52.684;9.918;2023-05-02T00:05:39;6.13;;;4.40;;
8113;SDS011;4099;52.684;9.918;2023-05-02T00:16:42;5.30;;;4.23;;
8113;SDS011;4099;52.684;9.918;2023-05-02T00:21:49;6.33;;;4.07;;
8113;SDS011;4099;52.684;9.918;2023-05-02T00:27:41;5.40;;;3.70;;
8113;SDS011;4099;52.684;9.918;2023-05-02T00:32:50;4.57;;;3.90;;
8113;SDS011;4099;52.684;9.918;2023-05-02T00:38:26;5.37;;;3.43;;
8113;SDS011;4099;52.684;9.918;2023-05-02T00:43:42;4.97;;;3.90;;
8113;SDS011;4099;52.684;9.918;2023-05-02T00:49:17;4.87;;;3.70;;
8113;SDS011;4099;52.684;9.918;2023-05-02T00:54:34;6.30;;;3.87;;
8113;SDS011;4099;52.684;9.918;2023-05-02T00:59:59;4.13;;;3.73;;
8113;SDS011;4099;52.684;9.918;2023-05-02T01:05:12;7.27;;;4.10;;
8113;SDS011;4099;52.684;9.918;2023-05-02T01:10:37;6.93;;;4.20;;
8113;SDS011;4099;52.684;9.918;2023-05-02T01:15:58;4.70;;;3.80;;
8113;SDS011;4099;52.684;9.918;2023-05-02T01:21:52;5.77;;;4.00;;
8113;SDS011;4099;52.684;9.918;2023-05-02T01:27:10;4.20;;;3.70;;
8113;SDS011;4099;52.684;9.918;2023-05-02T01:32:26;6.23;;;4.07;;
8113;SDS011;4099;52.684;9.918;2023-05-02T01:37:52;4.90;;;4.40;;
8113;SDS011;4099;52.684;9.918;2023-05-02T01:43:06;5.57;;;3.83;;
8113;SDS011;4099;52.684;9.918;2023-05-02T01:48:12;4.77;;;3.30;;
8113;SDS011;4099;52.684;9.918;2023-05-02T01:53:23;4.93;;;3.87;;
8113;SDS011;4099;52.684;9.918;2023-05-02T01:58:35;9.47;;;7.60;;
8113;SDS011;4099;52.684;9.918;2023-05-02T02:04:05;18.20;;;14.53;;
8113;SDS011;4099;52.684;9.918;2023-05-02T02:09:13;17.67;;;12.97;;
8113;SDS011;4099;52.684;9.918;2023-05-02T02:14:17;11.33;;;8.50;;
8113;SDS011;4099;52.684;9.918;2023-05-02T02:19:28;10.43;;;7.60;;
8113;SDS011;4099;52.684;9.918;2023-05-02T02:24:35;10.13;;;7.90;;
8113;SDS011;4099;52.684;9.918;2023-05-02T02:30:12;9.07;;;7.30;;
8113;SDS011;4099;52.684;9.918;2023-05-02T02:35:41;12.43;;;8.67;;
8113;SDS011;4099;52.684;9.918;2023-05-02T02:40:54;10.47;;;7.83;;
8113;SDS011;4099;52.684;9.918;2023-05-02T02:46:15;12.47;;;9.23;;
8113;SDS011;4099;52.684;9.918;2023-05-02T02:52:01;12.27;;;9.07;;
8113;SDS011;4099;52.684;9.918;2023-05-02T02:57:44;12.63;;;8.53;;
8113;SDS011;4099;52.684;9.918;2023-05-02T03:02:53;10.20;;;8.07;;
8113;SDS011;4099;52.684;9.918;2023-05-02T03:08:07;14.33;;;9.53;;
8113;SDS011;4099;52.684;9.918;2023-05-02T03:13:17;12.97;;;10.43;;
8113;SDS011;4099;52.684;9.918;2023-05-02T03:18:28;16.20;;;11.63;;
8113;SDS011;4099;52.684;9.918;2023-05-02T03:23:53;15.53;;;11.67;;
8113;SDS011;4099;52.684;9.918;2023-05-02T03:29:39;16.70;;;12.23;;
8113;SDS011;4099;52.684;9.918;2023-05-02T03:34:56;18.13;;;13.53;;
8113;SDS011;4099;52.684;9.918;2023-05-02T03:40:08;17.30;;;12.97;;
8113;SDS011;4099;52.684;9.918;2023-05-02T03:45:33;18.73;;;13.43;;
8113;SDS011;4099;52.684;9.918;2023-05-02T03:50:45;22.90;;;15.60;;
8113;SDS011;4099;52.684;9.918;2023-05-02T03:55:55;21.63;;;15.50;;
8113;SDS011;4099;52.684;9.918;2023-05-02T04:01:14;26.20;;;18.17;;
8113;SDS011;4099;52.684;9.918;2023-05-02T04:06:29;33.90;;;20.07;;
8113;SDS011;4099;52.684;9.918;2023-05-02T04:17:12;32.50;;;21.07;;
8113;SDS011;4099;52.684;9.918;2023-05-02T04:22:28;38.27;;;25.20;;
8113;SDS011;4099;52.684;9.918;2023-05-02T04:27:43;27.17;;;17.97;;
8113;SDS011;4099;52.684;9.918;2023-05-02T04:32:54;14.83;;;10.33;;
8113;SDS011;4099;52.684;9.918;2023-05-02T04:38:15;14.60;;;9.50;;
8113;SDS011;4099;52.684;9.918;2023-05-02T04:49:31;3.97;;;2.53;;
8113;SDS011;4099;52.684;9.918;2023-05-02T04:54:49;3.57;;;2.17;;
8113;SDS011;4099;52.684;9.918;2023-05-02T05:00:12;3.50;;;2.67;;
8113;SDS011;4099;52.684;9.918;2023-05-02T05:05:22;4.63;;;3.00;;
8113;SDS011;4099;52.684;9.918;2023-05-02T05:11:00;3.93;;;2.50;;
8113;SDS011;4099;52.684;9.918;2023-05-02T05:16:13;4.10;;;2.77;;
8113;SDS011;4099;52.684;9.918;2023-05-02T05:22:00;9.17;;;4.03;;
8113;SDS011;4099;52.684;9.918;2023-05-02T05:27:39;7.70;;;3.97;;
8113;SDS011;4099;52.684;9.918;2023-05-02T05:33:19;7.53;;;3.70;;
8113;SDS011;4099;52.684;9.918;2023-05-02T05:38:41;10.10;;;4.47;;
8113;SDS011;4099;52.684;9.918;2023-05-02T05:44:31;9.37;;;4.73;;
8113;SDS011;4099;52.684;9.918;2023-05-02T05:55:31;12.13;;;5.23;;
8113;SDS011;4099;52.684;9.918;2023-05-02T06:01:26;10.63;;;5.00;;
8113;SDS011;4099;52.684;9.918;2023-05-02T06:07:12;17.10;;;5.57;;
8113;SDS011;4099;52.684;9.918;2023-05-02T06:12:28;13.93;;;5.20;;
8113;SDS011;4099;52.684;9.918;2023-05-02T06:20:00;13.97;;;5.63;;
8113;SDS011;4099;52.684;9.918;2023-05-02T06:29:52;14.07;;;4.97;;
8113;SDS011;4099;52.684;9.918;2023-05-02T06:36:30;11.03;;;4.23;;
8113;SDS011;4099;52.684;9.918;2023-05-02T06:41:23;14.07;;;5.27;;
8113;SDS011;4099;52.684;9.918;2023-05-02T06:53:06;12.30;;;4.93;;
8113;SDS011;4099;52.684;9.918;2023-05-02T06:58:30;16.57;;;4.50;;
8113;SDS011;4099;52.684;9.918;2023-05-02T07:03:49;11.30;;;3.83;;
8113;SDS011;4099;52.684;9.918;2023-05-02T07:09:10;10.73;;;3.80;;
8113;SDS011;4099;52.684;9.918;2023-05-02T07:20:02;7.33;;;3.00;;
8113;SDS011;4099;52.684;9.918;2023-05-02T07:25:22;6.27;;;3.13;;
8113;SDS011;4099;52.684;9.918;2023-05-02T07:30:50;9.20;;;3.00;;
8113;SDS011;4099;52.684;9.918;2023-05-02T07:36:07;5.30;;;2.40;;
8113;SDS011;4099;52.684;9.918;2023-05-02T07:41:56;6.20;;;2.60;;
8113;SDS011;4099;52.684;9.918;2023-05-02T07:47:19;7.83;;;2.87;;
8113;SDS011;4099;52.684;9.918;2023-05-02T07:52:36;3.70;;;2.37;;
8113;SDS011;4099;52.684;9.918;2023-05-02T07:57:48;12.50;;;4.40;;
8113;SDS011;4099;52.684;9.918;2023-05-02T08:03:05;5.60;;;3.07;;
8113;SDS011;4099;52.684;9.918;2023-05-02T08:08:33;5.53;;;2.20;;
8113;SDS011;4099;52.684;9.918;2023-05-02T08:13:55;5.80;;;2.30;;
8113;SDS011;4099;52.684;9.918;2023-05-02T08:19:14;5.23;;;2.90;;
8113;SDS011;4099;52.684;9.918;2023-05-02T08:24:57;5.80;;;2.27;;
8113;SDS011;4099;52.684;9.918;2023-05-02T08:30:09;5.97;;;2.27;;
8113;SDS011;4099;52.684;9.918;2023-05-02T08:35:21;4.53;;;2.20;;
8113;SDS011;4099;52.684;9.918;2023-05-02T08:40:39;4.57;;;2.30;;
8113;SDS011;4099;52.684;9.918;2023-05-02T08:46:05;3.83;;;2.07;;
8113;SDS011;4099;52.684;9.918;2023-05-02T08:51:25;4.70;;;2.30;;
8113;SDS011;4099;52.684;9.918;2023-05-02T08:56:43;6.30;;;2.53;;
8113;SDS011;4099;52.684;9.918;2023-05-02T09:01:57;8.20;;;3.00;;
8113;SDS011;4099;52.684;9.918;2023-05-02T09:07:21;5.37;;;2.83;;
8113;SDS011;4099;52.684;9.918;2023-05-02T09:12:44;6.80;;;2.77;;
8113;SDS011;4099;52.684;9.918;2023-05-02T09:17:54;8.97;;;2.83;;
8113;SDS011;4099;52.684;9.918;2023-05-02T09:23:11;6.87;;;2.93;;
8113;SDS011;4099;52.684;9.918;2023-05-02T09:34:18;14.20;;;7.17;;
8113;SDS011;4099;52.684;9.918;2023-05-02T09:39:30;6.67;;;3.40;;
8113;SDS011;4099;52.684;9.918;2023-05-02T09:56:24;4.43;;;2.90;;
8113;SDS011;4099;52.684;9.918;2023-05-02T10:02:06;7.80;;;3.10;;
8113;SDS011;4099;52.684;9.918;2023-05-02T10:07:30;6.83;;;2.90;;
8113;SDS011;4099;52.684;9.918;2023-05-02T10:12:56;6.43;;;3.10;;
8113;SDS011;4099;52.684;9.918;2023-05-02T10:18:23;6.27;;;2.90;;
8113;SDS011;4099;52.684;9.918;2023-05-02T10:23:57;7.30;;;2.97;;
8113;SDS011;4099;52.684;9.918;2023-05-02T10:29:43;6.10;;;2.73;;
8113;SDS011;4099;52.684;9.918;2023-05-02T10:35:07;8.23;;;2.67;;
8113;SDS011;4099;52.684;9.918;2023-05-02T10:40:17;7.70;;;3.20;;
8113;SDS011;4099;52.684;9.918;2023-05-02T10:45:41;16.03;;;8.30;;
8113;SDS011;4099;52.684;9.918;2023-05-02T10:50:50;6.37;;;3.10;;
8113;SDS011;4099;52.684;9.918;2023-05-02T10:56:17;9.00;;;3.37;;
8113;SDS011;4099;52.684;9.918;2023-05-02T11:01:54;7.50;;;3.87;;
8113;SDS011;4099;52.684;9.918;2023-05-02T11:07:32;5.87;;;4.13;;
8113;SDS011;4099;52.684;9.918;2023-05-02T11:13:00;6.93;;;3.70;;
8113;SDS011;4099;52.684;9.918;2023-05-02T11:35:19;4.03;;;2.57;;
8113;SDS011;4099;52.684;9.918;2023-05-02T11:40:50;4.50;;;3.10;;
8113;SDS011;4099;52.684;9.918;2023-05-02T11:52:05;5.17;;;3.30;;
8113;SDS011;4099;52.684;9.918;2023-05-02T11:57:24;6.57;;;3.07;;
8113;SDS011;4099;52.684;9.918;2023-05-02T12:03:14;3.67;;;2.80;;
8113;SDS011;4099;52.684;9.918;2023-05-02T12:09:04;4.23;;;3.10;;
8113;SDS011;4099;52.684;9.918;2023-05-02T12:14:49;3.60;;;2.37;;
8113;SDS011;4099;52.684;9.918;2023-05-02T12:20:26;4.63;;;2.60;;
8113;SDS011;4099;52.684;9.918;2023-05-02T12:31:56;3.13;;;1.87;;
8113;SDS011;4099;52.684;9.918;2023-05-02T12:43:12;3.03;;;1.93;;
8113;SDS011;4099;52.684;9.918;2023-05-02T12:49:10;3.33;;;2.70;;
8113;SDS011;4099;52.684;9.918;2023-05-02T12:54:41;2.73;;;2.13;;
8113;SDS011;4099;52.684;9.918;2023-05-02T13:00:19;3.63;;;2.47;;
8113;SDS011;4099;52.684;9.918;2023-05-02T13:05:36;4.23;;;1.97;;
8113;SDS011;4099;52.684;9.918;2023-05-02T13:16:50;3.30;;;1.43;;
8113;SDS011;4099;52.684;9.918;2023-05-02T13:22:30;2.70;;;1.70;;
8113;SDS011;4099;52.684;9.918;2023-05-02T13:28:00;2.97;;;1.70;;
8113;SDS011;4099;52.684;9.918;2023-05-02T13:33:37;6.47;;;3.93;;
8113;SDS011;4099;52.684;9.918;2023-05-02T13:38:59;5.53;;;1.53;;
8113;SDS011;4099;52.684;9.918;2023-05-02T13:44:31;2.50;;;1.53;;
8113;SDS011;4099;52.684;9.918;2023-05-02T13:50:05;3.20;;;1.40;;
8113;SDS011;4099;52.684;9.918;2023-05-02T13:55:44;3.17;;;1.50;;
8113;SDS011;4099;52.684;9.918;2023-05-02T14:01:09;2.70;;;1.57;;
8113;SDS011;4099;52.684;9.918;2023-05-02T14:06:37;2.90;;;1.60;;
8113;SDS011;4099;52.684;9.918;2023-05-02T14:12:18;4.37;;;2.03;;
8113;SDS011;4099;52.684;9.918;2023-05-02T14:17:57;1.63;;;1.40;;
8113;SDS011;4099;52.684;9.918;2023-05-02T14:34:46;2.93;;;1.50;;
8113;SDS011;4099;52.684;9.918;2023-05-02T14:40:15;1.63;;;1.23;;
8113;SDS011;4099;52.684;9.918;2023-05-02T14:46:01;4.33;;;1.70;;
8113;SDS011;4099;52.684;9.918;2023-05-02T14:56:58;5.77;;;4.20;;
8113;SDS011;4099;52.684;9.918;2023-05-02T15:02:20;5.03;;;2.60;;
8113;SDS011;4099;52.684;9.918;2023-05-02T15:07:50;2.40;;;2.10;;
8113;SDS011;4099;52.684;9.918;2023-05-02T15:13:14;3.93;;;1.97;;
8113;SDS011;4099;52.684;9.918;2023-05-02T15:18:52;4.63;;;1.70;;
8113;SDS011;4099;52.684;9.918;2023-05-02T15:24:11;2.43;;;1.70;;
8113;SDS011;4099;52.684;9.918;2023-05-02T15:29:20;3.13;;;1.80;;
8113;SDS011;4099;52.684;9.918;2023-05-02T15:45:36;3.70;;;1.83;;
8113;SDS011;4099;52.684;9.918;2023-05-02T15:50:45;4.13;;;2.40;;
8113;SDS011;4099;52.684;9.918;2023-05-02T15:56:05;2.47;;;1.50;;
8113;SDS011;4099;52.684;9.918;2023-05-02T16:01:28;3.73;;;1.37;;
8113;SDS011;4099;52.684;9.918;2023-05-02T16:06:34;2.73;;;1.97;;
8113;SDS011;4099;52.684;9.918;2023-05-02T16:17:24;2.70;;;2.00;;
8113;SDS011;4099;52.684;9.918;2023-05-02T16:22:46;3.60;;;1.83;;
8113;SDS011;4099;52.684;9.918;2023-05-02T16:28:02;3.47;;;2.50;;
8113;SDS011;4099;52.684;9.918;2023-05-02T16:33:20;3.13;;;1.80;;
8113;SDS011;4099;52.684;9.918;2023-05-02T16:38:29;3.40;;;1.97;;
8113;SDS011;4099;52.684;9.918;2023-05-02T16:43:46;6.60;;;4.80;;
8113;SDS011;4099;52.684;9.918;2023-05-02T16:49:13;4.23;;;3.70;;
8113;SDS011;4099;52.684;9.918;2023-05-02T16:54:32;2.63;;;1.77;;
8113;SDS011;4099;52.684;9.918;2023-05-02T16:59:53;5.53;;;2.50;;
8113;SDS011;4099;52.684;9.918;2023-05-02T17:05:08;4.70;;;2.70;;
8113;SDS011;4099;52.684;9.918;2023-05-02T17:10:38;4.70;;;2.63;;
8113;SDS011;4099;52.684;9.918;2023-05-02T17:16:13;6.33;;;3.93;;
8113;SDS011;4099;52.684;9.918;2023-05-02T17:22:07;2.33;;;1.70;;
8113;SDS011;4099;52.684;9.918;2023-05-02T17:27:48;5.00;;;2.20;;
8113;SDS011;4099;52.684;9.918;2023-05-02T17:33:32;2.77;;;1.70;;
8113;SDS011;4099;52.684;9.918;2023-05-02T17:38:57;3.17;;;1.80;;
8113;SDS011;4099;52.684;9.918;2023-05-02T17:44:29;3.40;;;1.40;;
8113;SDS011;4099;52.684;9.918;2023-05-02T17:56:40;1.77;;;1.40;;
8113;SDS011;4099;52.684;9.918;2023-05-02T18:01:46;4.53;;;2.33;;
8113;SDS011;4099;52.684;9.918;2023-05-02T18:07:44;3.13;;;2.23;;
8113;SDS011;4099;52.684;9.918;2023-05-02T18:13:10;4.50;;;3.30;;
8113;SDS011;4099;52.684;9.918;2023-05-02T18:18:38;4.47;;;3.50;;
8113;SDS011;4099;52.684;9.918;2023-05-02T18:29:48;3.93;;;3.10;;
8113;SDS011;4099;52.684;9.918;2023-05-02T18:35:10;3.00;;;2.13;;
8113;SDS011;4099;52.684;9.918;2023-05-02T18:40:29;4.60;;;2.80;;
8113;SDS011;4099;52.684;9.918;2023-05-02T18:45:43;3.63;;;2.70;;
8113;SDS011;4099;52.684;9.918;2023-05-02T18:51:07;3.30;;;2.40;;
8113;SDS011;4099;52.684;9.918;2023-05-02T18:56:27;4.60;;;2.90;;
8113;SDS011;4099;52.684;9.918;2023-05-02T19:02:53;2.67;;;2.30;;
8113;SDS011;4099;52.684;9.918;2023-05-02T19:07:41;3.73;;;1.93;;
8113;SDS011;4099;52.684;9.918;2023-05-02T19:12:46;3.67;;;2.20;;
8113;SDS011;4099;52.684;9.918;2023-05-02T19:17:57;2.37;;;2.17;;
8113;SDS011;4099;52.684;9.918;2023-05-02T19:23:16;4.87;;;3.60;;
8113;SDS011;4099;52.684;9.918;2023-05-02T19:33:56;6.83;;;4.33;;
8113;SDS011;4099;52.684;9.918;2023-05-02T19:39:06;7.60;;;4.43;;
8113;SDS011;4099;52.684;9.918;2023-05-02T19:44:17;5.37;;;3.40;;
8113;SDS011;4099;52.684;9.918;2023-05-02T19:49:34;5.33;;;2.57;;
8113;SDS011;4099;52.684;9.918;2023-05-02T19:54:54;2.40;;;2.20;;
8113;SDS011;4099;52.684;9.918;2023-05-02T20:00:19;6.27;;;3.03;;
8113;SDS011;4099;52.684;9.918;2023-05-02T20:05:26;4.33;;;2.77;;
8113;SDS011;4099;52.684;9.918;2023-05-02T20:10:35;4.63;;;2.33;;
8113;SDS011;4099;52.684;9.918;2023-05-02T20:15:47;4.07;;;2.37;;
8113;SDS011;4099;52.684;9.918;2023-05-02T20:20:58;5.30;;;2.73;;
8113;SDS011;4099;52.684;9.918;2023-05-02T20:26:16;3.27;;;2.97;;
8113;SDS011;4099;52.684;9.918;2023-05-02T20:31:24;4.50;;;3.50;;
8113;SDS011;4099;52.684;9.918;2023-05-02T20:36:44;5.40;;;4.07;;
8113;SDS011;4099;52.684;9.918;2023-05-02T20:41:49;3.67;;;3.00;;
8113;SDS011;4099;52.684;9.918;2023-05-02T20:47:01;5.03;;;3.00;;
8113;SDS011;4099;52.684;9.918;2023-05-02T20:52:18;4.03;;;3.00;;
8113;SDS011;4099;52.684;9.918;2023-05-02T20:57:29;6.13;;;2.77;;
8113;SDS011;4099;52.684;9.918;2023-05-02T21:02:39;6.27;;;2.63;;
8113;SDS011;4099;52.684;9.918;2023-05-02T21:07:49;5.97;;;2.83;;
8113;SDS011;4099;52.684;9.918;2023-05-02T21:13:26;4.27;;;2.73;;
8113;SDS011;4099;52.684;9.918;2023-05-02T21:24:50;4.73;;;3.30;;
8113;SDS011;4099;52.684;9.918;2023-05-02T21:30:29;5.93;;;4.00;;
8113;SDS011;4099;52.684;9.918;2023-05-02T21:36:02;4.43;;;3.80;;
8113;SDS011;4099;52.684;9.918;2023-05-02T21:41:28;6.00;;;4.00;;
8113;SDS011;4099;52.684;9.918;2023-05-02T21:53:28;6.83;;;5.07;;
8113;SDS011;4099;52.684;9.918;2023-05-02T22:11:10;12.60;;;6.20;;
8113;SDS011;4099;52.684;9.918;2023-05-02T22:16:13;7.50;;;5.37;;
8113;SDS011;4099;52.684;9.918;2023-05-02T22:21:46;9.47;;;4.90;;
8113;SDS011;4099;52.684;9.918;2023-05-02T22:27:26;8.47;;;6.00;;
8113;SDS011;4099;52.684;9.918;2023-05-02T23:23:19;8.37;;;5.40;;
8113;SDS011;4099;52.684;9.918;2023-05-02T23:28:20;8.17;;;5.43;;
8113;SDS011;4099;52.684;9.918;2023-05-02T23:33:22;7.20;;;4.73;;
8113;SDS011;4099;52.684;9.918;2023-05-02T23:38:27;6.90;;;4.33;;
8113;SDS011;4099;52.684;9.918;2023-05-02T23:43:29;4.97;;;3.10;;
8113;SDS011;4099;52.684;9.918;2023-05-02T23:48:30;3.97;;;3.10;;
8113;SDS011;4099;52.684;9.918;2023-05-02T23:53:34;3.30;;;2.93;;
8113;SDS011;4099;52.684;9.918;2023-05-02T23:58:35;3.20;;;2.70;;
